sensor_id;sensor_type;location;lat;lon;timestamp;temperature;humidity
19781;DHT22;10050;55.492;13.506;2023-04-22T00:00:03;7.30;99.90
19781;DHT22;10050;55.492;13.506;2023-04-22T00:02:29;7.20;99.90
19781;DHT22;10050;55.492;13.506;2023-04-22T00:04:55;7.20;99.90
19781;DHT22;10050;55.492;13.506;2023-04-22T00:07:21;7.10;99.90
19781;DHT22;10050;55.492;13.506;2023-04-22T00:09:48;7.00;99.90
19781;DHT22;10050;55.492;13.506;2023-04-22T00:12:13;7.10;99.90
19781;DHT22;10050;55.492;13.506;2023-04-22T00:14:39;7.00;99.90
19781;DHT22;10050;55.492;13.506;2023-04-22T00:17:05;7.00;99.90
19781;DHT22;10050;55.492;13.506;2023-04-22T00:19:32;7.00;99.90
19781;DHT22;10050;55.492;13.506;2023-04-22T00:21:58;7.00;99.90
19781;DHT22;10050;55.492;13.506;2023-04-22T00:24:23;6.90;99.90
19781;DHT22;10050;55.492;13.506;2023-04-22T00:26:49;6.90;99.90
19781;DHT22;10050;55.492;13.506;2023-04-22T00:29:14;6.80;99.90
19781;DHT22;10050;55.492;13.506;2023-04-22T00:31:40;6.80;99.90
19781;DHT22;10050;55.492;13.506;2023-04-22T00:34:06;6.70;99.90
19781;DHT22;10050;55.492;13.506;2023-04-22T00:36:31;6.80;99.90
19781;DHT22;10050;55.492;13.506;2023-04-22T00:38:57;6.70;99.90
19781;DHT22;10050;55.492;13.506;2023-04-22T00:41:23;6.70;99.90
19781;DHT22;10050;55.492;13.506;2023-04-22T00:43:49;6.70;99.90
19781;DHT22;10050;55.492;13.506;2023-04-22T00:46:15;6.70;99.90
19781;DHT22;10050;55.492;13.506;2023-04-22T00:48:41;6.70;99.90
19781;DHT22;10050;55.492;13.506;2023-04-22T00:51:07;6.60;99.90
19781;DHT22;10050;55.492;13.506;2023-04-22T00:53:32;6.60;99.90
19781;DHT22;10050;55.492;13.506;2023-04-22T00:55:58;6.70;99.90
19781;DHT22;10050;55.492;13.506;2023-04-22T00:58:28;6.70;99.90
19781;DHT22;10050;55.492;13.506;2023-04-22T01:00:54;6.70;99.90
19781;DHT22;10050;55.492;13.506;2023-04-22T01:03:20;6.70;99.90
19781;DHT22;10050;55.492;13.506;2023-04-22T01:05:47;6.70;99.90
19781;DHT22;10050;55.492;13.506;2023-04-22T01:08:13;6.70;99.90
19781;DHT22;10050;55.492;13.506;2023-04-22T01:10:40;6.70;99.90
19781;DHT22;10050;55.492;13.506;2023-04-22T01:13:06;6.70;99.90
19781;DHT22;10050;55.492;13.506;2023-04-22T01:15:31;6.70;99.90
19781;DHT22;10050;55.492;13.506;2023-04-22T01:17:58;6.70;99.90
19781;DHT22;10050;55.492;13.506;2023-04-22T01:20:29;6.70;99.90
19781;DHT22;10050;55.492;13.506;2023-04-22T01:22:55;6.60;99.90
19781;DHT22;10050;55.492;13.506;2023-04-22T01:25:25;6.60;99.90
19781;DHT22;10050;55.492;13.506;2023-04-22T01:27:50;6.60;99.90
19781;DHT22;10050;55.492;13.506;2023-04-22T01:30:17;6.60;99.90
19781;DHT22;10050;55.492;13.506;2023-04-22T01:32:42;6.70;99.90
19781;DHT22;10050;55.492;13.506;2023-04-22T01:35:09;6.60;99.90
19781;DHT22;10050;55.492;13.506;2023-04-22T01:37:35;6.60;99.90
19781;DHT22;10050;55.492;13.506;2023-04-22T01:40:01;6.50;99.90
19781;DHT22;10050;55.492;13.506;2023-04-22T01:42:29;6.50;99.90
19781;DHT22;10050;55.492;13.506;2023-04-22T01:44:55;6.50;99.90
19781;DHT22;10050;55.492;13.506;2023-04-22T01:47:21;6.50;99.90
19781;DHT22;10050;55.492;13.506;2023-04-22T01:49:47;6.50;99.90
19781;DHT22;10050;55.492;13.506;2023-04-22T01:52:13;6.40;99.90
19781;DHT22;10050;55.492;13.506;2023-04-22T01:54:40;6.40;99.90
19781;DHT22;10050;55.492;13.506;2023-04-22T01:57:08;6.50;99.90
19781;DHT22;10050;55.492;13.506;2023-04-22T01:59:35;6.50;99.90
19781;DHT22;10050;55.492;13.506;2023-04-22T02:02:01;6.50;99.90
19781;DHT22;10050;55.492;13.506;2023-04-22T02:04:27;6.50;99.90
19781;DHT22;10050;55.492;13.506;2023-04-22T02:06:52;6.50;99.90
19781;DHT22;10050;55.492;13.506;2023-04-22T02:09:18;6.40;99.90
19781;DHT22;10050;55.492;13.506;2023-04-22T02:11:44;6.40;99.90
19781;DHT22;10050;55.492;13.506;2023-04-22T02:14:09;6.40;99.90
19781;DHT22;10050;55.492;13.506;2023-04-22T02:16:37;6.30;99.90
19781;DHT22;10050;55.492;13.506;2023-04-22T02:19:04;6.30;99.90
19781;DHT22;10050;55.492;13.506;2023-04-22T02:21:30;6.20;99.90
19781;DHT22;10050;55.492;13.506;2023-04-22T02:23:59;6.20;99.90
19781;DHT22;10050;55.492;13.506;2023-04-22T02:26:25;6.10;99.90
19781;DHT22;10050;55.492;13.506;2023-04-22T02:28:53;6.10;99.90
19781;DHT22;10050;55.492;13.506;2023-04-22T02:31:19;6.10;99.90
19781;DHT22;10050;55.492;13.506;2023-04-22T02:33:44;6.00;99.90
19781;DHT22;10050;55.492;13.506;2023-04-22T02:36:10;6.00;99.90
19781;DHT22;10050;55.492;13.506;2023-04-22T02:38:37;6.00;99.90
19781;DHT22;10050;55.492;13.506;2023-04-22T02:41:02;6.00;99.90
19781;DHT22;10050;55.492;13.506;2023-04-22T02:43:28;5.90;99.90
19781;DHT22;10050;55.492;13.506;2023-04-22T02:45:54;5.90;99.90
19781;DHT22;10050;55.492;13.506;2023-04-22T02:48:19;5.90;99.90
19781;DHT22;10050;55.492;13.506;2023-04-22T02:50:45;6.00;99.90
19781;DHT22;10050;55.492;13.506;2023-04-22T02:53:11;6.00;99.90
19781;DHT22;10050;55.492;13.506;2023-04-22T02:55:38;6.00;99.90
19781;DHT22;10050;55.492;13.506;2023-04-22T02:58:04;5.90;99.90
19781;DHT22;10050;55.492;13.506;2023-04-22T03:00:30;6.00;99.90
19781;DHT22;10050;55.492;13.506;2023-04-22T03:02:55;6.00;99.90
19781;DHT22;10050;55.492;13.506;2023-04-22T03:05:21;6.00;99.90
19781;DHT22;10050;55.492;13.506;2023-04-22T03:07:47;5.90;99.90
19781;DHT22;10050;55.492;13.506;2023-04-22T03:10:13;5.90;99.90
19781;DHT22;10050;55.492;13.506;2023-04-22T03:12:39;6.00;99.90
19781;DHT22;10050;55.492;13.506;2023-04-22T03:15:05;6.00;99.90
19781;DHT22;10050;55.492;13.506;2023-04-22T03:17:31;5.90;99.90
19781;DHT22;10050;55.492;13.506;2023-04-22T03:19:57;5.80;99.90
19781;DHT22;10050;55.492;13.506;2023-04-22T03:22:22;5.90;99.90
19781;DHT22;10050;55.492;13.506;2023-04-22T03:24:48;5.90;99.90
19781;DHT22;10050;55.492;13.506;2023-04-22T03:27:14;5.90;99.90
19781;DHT22;10050;55.492;13.506;2023-04-22T03:29:39;5.90;99.90
19781;DHT22;10050;55.492;13.506;2023-04-22T03:32:05;5.90;99.90
19781;DHT22;10050;55.492;13.506;2023-04-22T03:34:31;5.90;99.90
19781;DHT22;10050;55.492;13.506;2023-04-22T03:36:56;5.80;99.90
19781;DHT22;10050;55.492;13.506;2023-04-22T03:39:22;5.80;99.90
19781;DHT22;10050;55.492;13.506;2023-04-22T03:41:47;5.80;99.90
19781;DHT22;10050;55.492;13.506;2023-04-22T03:44:13;5.80;99.90
19781;DHT22;10050;55.492;13.506;2023-04-22T03:46:38;5.70;99.90
19781;DHT22;10050;55.492;13.506;2023-04-22T03:49:04;5.70;99.90
19781;DHT22;10050;55.492;13.506;2023-04-22T03:51:30;5.70;99.90
19781;DHT22;10050;55.492;13.506;2023-04-22T03:53:56;5.70;99.90
19781;DHT22;10050;55.492;13.506;2023-04-22T03:56:22;5.60;99.90
19781;DHT22;10050;55.492;13.506;2023-04-22T03:58:49;5.60;99.90
19781;DHT22;10050;55.492;13.506;2023-04-22T04:01:15;5.70;99.90
19781;DHT22;10050;55.492;13.506;2023-04-22T04:03:40;5.80;99.90
19781;DHT22;10050;55.492;13.506;2023-04-22T04:06:06;5.80;99.90
19781;DHT22;10050;55.492;13.506;2023-04-22T04:08:32;5.70;99.90
19781;DHT22;10050;55.492;13.506;2023-04-22T04:10:57;5.60;99.90
19781;DHT22;10050;55.492;13.506;2023-04-22T04:13:23;5.70;99.90
19781;DHT22;10050;55.492;13.506;2023-04-22T04:15:49;5.70;99.90
19781;DHT22;10050;55.492;13.506;2023-04-22T04:18:14;5.70;99.90
19781;DHT22;10050;55.492;13.506;2023-04-22T04:20:40;5.80;99.90
19781;DHT22;10050;55.492;13.506;2023-04-22T04:23:05;5.70;99.90
19781;DHT22;10050;55.492;13.506;2023-04-22T04:25:32;5.80;99.90
19781;DHT22;10050;55.492;13.506;2023-04-22T04:28:03;5.80;99.90
19781;DHT22;10050;55.492;13.506;2023-04-22T04:30:29;5.80;99.90
19781;DHT22;10050;55.492;13.506;2023-04-22T04:32:55;5.70;99.90
19781;DHT22;10050;55.492;13.506;2023-04-22T04:35:22;5.70;99.90
19781;DHT22;10050;55.492;13.506;2023-04-22T04:37:48;5.70;99.90
19781;DHT22;10050;55.492;13.506;2023-04-22T04:40:15;5.70;99.90
19781;DHT22;10050;55.492;13.506;2023-04-22T04:42:40;5.70;99.90
19781;DHT22;10050;55.492;13.506;2023-04-22T04:45:07;5.80;99.90
19781;DHT22;10050;55.492;13.506;2023-04-22T04:47:33;5.80;99.90
19781;DHT22;10050;55.492;13.506;2023-04-22T04:50:00;5.90;99.90
19781;DHT22;10050;55.492;13.506;2023-04-22T04:52:28;6.00;99.90
19781;DHT22;10050;55.492;13.506;2023-04-22T04:54:55;6.10;99.90
19781;DHT22;10050;55.492;13.506;2023-04-22T04:57:21;6.20;99.90
19781;DHT22;10050;55.492;13.506;2023-04-22T04:59:47;6.30;99.90
19781;DHT22;10050;55.492;13.506;2023-04-22T05:02:12;6.40;99.90
19781;DHT22;10050;55.492;13.506;2023-04-22T05:04:38;6.40;99.90
19781;DHT22;10050;55.492;13.506;2023-04-22T05:07:03;6.60;99.90
19781;DHT22;10050;55.492;13.506;2023-04-22T05:09:29;6.70;99.90
19781;DHT22;10050;55.492;13.506;2023-04-22T05:12:02;6.80;99.90
19781;DHT22;10050;55.492;13.506;2023-04-22T05:14:27;6.90;99.90
19781;DHT22;10050;55.492;13.506;2023-04-22T05:16:53;7.00;99.90
19781;DHT22;10050;55.492;13.506;2023-04-22T05:19:19;7.10;99.90
19781;DHT22;10050;55.492;13.506;2023-04-22T05:21:44;7.20;99.90
19781;DHT22;10050;55.492;13.506;2023-04-22T05:24:10;7.40;99.90
19781;DHT22;10050;55.492;13.506;2023-04-22T05:26:35;7.50;99.90
19781;DHT22;10050;55.492;13.506;2023-04-22T05:29:01;7.70;99.90
19781;DHT22;10050;55.492;13.506;2023-04-22T05:31:27;7.90;99.90
19781;DHT22;10050;55.492;13.506;2023-04-22T05:33:53;7.90;99.90
19781;DHT22;10050;55.492;13.506;2023-04-22T05:36:19;8.10;99.90
19781;DHT22;10050;55.492;13.506;2023-04-22T05:38:44;8.20;99.90
19781;DHT22;10050;55.492;13.506;2023-04-22T05:41:10;8.30;99.90
19781;DHT22;10050;55.492;13.506;2023-04-22T05:43:37;8.50;99.90
19781;DHT22;10050;55.492;13.506;2023-04-22T05:46:02;8.70;99.90
19781;DHT22;10050;55.492;13.506;2023-04-22T05:48:28;8.80;99.90
19781;DHT22;10050;55.492;13.506;2023-04-22T05:50:54;9.00;99.90
19781;DHT22;10050;55.492;13.506;2023-04-22T05:53:20;9.10;99.90
19781;DHT22;10050;55.492;13.506;2023-04-22T05:55:45;9.30;99.90
19781;DHT22;10050;55.492;13.506;2023-04-22T05:58:11;9.60;99.90
19781;DHT22;10050;55.492;13.506;2023-04-22T06:00:37;9.80;99.90
19781;DHT22;10050;55.492;13.506;2023-04-22T06:03:02;10.00;99.90
19781;DHT22;10050;55.492;13.506;2023-04-22T06:05:28;10.10;99.90
19781;DHT22;10050;55.492;13.506;2023-04-22T06:07:54;10.30;99.90
19781;DHT22;10050;55.492;13.506;2023-04-22T06:10:20;10.50;99.90
19781;DHT22;10050;55.492;13.506;2023-04-22T06:12:45;10.60;99.90
19781;DHT22;10050;55.492;13.506;2023-04-22T06:15:11;10.80;99.90
19781;DHT22;10050;55.492;13.506;2023-04-22T06:17:37;11.00;99.90
19781;DHT22;10050;55.492;13.506;2023-04-22T06:20:04;11.20;99.90
19781;DHT22;10050;55.492;13.506;2023-04-22T06:22:30;11.50;99.90
19781;DHT22;10050;55.492;13.506;2023-04-22T06:24:56;11.60;99.90
19781;DHT22;10050;55.492;13.506;2023-04-22T06:27:22;11.80;99.90
19781;DHT22;10050;55.492;13.506;2023-04-22T06:29:47;12.00;99.90
19781;DHT22;10050;55.492;13.506;2023-04-22T06:32:13;12.30;99.90
19781;DHT22;10050;55.492;13.506;2023-04-22T06:34:38;12.50;99.90
19781;DHT22;10050;55.492;13.506;2023-04-22T06:37:05;12.70;99.90
19781;DHT22;10050;55.492;13.506;2023-04-22T06:39:30;12.70;99.90
19781;DHT22;10050;55.492;13.506;2023-04-22T06:41:56;13.00;99.90
19781;DHT22;10050;55.492;13.506;2023-04-22T06:44:24;13.30;99.90
19781;DHT22;10050;55.492;13.506;2023-04-22T06:46:50;13.60;99.90
19781;DHT22;10050;55.492;13.506;2023-04-22T06:49:15;14.00;99.90
19781;DHT22;10050;55.492;13.506;2023-04-22T06:51:41;14.30;99.90
19781;DHT22;10050;55.492;13.506;2023-04-22T06:54:10;14.50;99.90
19781;DHT22;10050;55.492;13.506;2023-04-22T06:56:35;14.70;99.90
19781;DHT22;10050;55.492;13.506;2023-04-22T06:59:01;14.90;99.90
19781;DHT22;10050;55.492;13.506;2023-04-22T07:01:27;15.40;99.90
19781;DHT22;10050;55.492;13.506;2023-04-22T07:03:52;15.80;99.90
19781;DHT22;10050;55.492;13.506;2023-04-22T07:06:18;16.10;99.90
19781;DHT22;10050;55.492;13.506;2023-04-22T07:08:44;16.40;99.90
19781;DHT22;10050;55.492;13.506;2023-04-22T07:11:09;16.70;99.90
19781;DHT22;10050;55.492;13.506;2023-04-22T07:13:35;16.80;99.90
19781;DHT22;10050;55.492;13.506;2023-04-22T07:16:01;17.00;99.90
19781;DHT22;10050;55.492;13.506;2023-04-22T07:18:27;17.20;98.40
19781;DHT22;10050;55.492;13.506;2023-04-22T07:20:53;17.20;99.10
19781;DHT22;10050;55.492;13.506;2023-04-22T07:23:22;17.40;98.30
19781;DHT22;10050;55.492;13.506;2023-04-22T07:25:48;17.40;98.40
19781;DHT22;10050;55.492;13.506;2023-04-22T07:28:13;17.30;97.30
19781;DHT22;10050;55.492;13.506;2023-04-22T07:30:39;17.20;97.60
19781;DHT22;10050;55.492;13.506;2023-04-22T07:33:05;17.40;97.90
19781;DHT22;10050;55.492;13.506;2023-04-22T07:35:33;17.60;96.80
19781;DHT22;10050;55.492;13.506;2023-04-22T07:37:58;17.60;96.00
19781;DHT22;10050;55.492;13.506;2023-04-22T07:40:24;17.80;96.40
19781;DHT22;10050;55.492;13.506;2023-04-22T07:42:50;17.60;95.00
19781;DHT22;10050;55.492;13.506;2023-04-22T07:45:16;17.80;95.60
19781;DHT22;10050;55.492;13.506;2023-04-22T07:47:41;17.50;95.50
19781;DHT22;10050;55.492;13.506;2023-04-22T07:50:07;17.60;96.80
19781;DHT22;10050;55.492;13.506;2023-04-22T07:52:33;17.50;95.50
19781;DHT22;10050;55.492;13.506;2023-04-22T07:54:59;18.10;97.60
19781;DHT22;10050;55.492;13.506;2023-04-22T07:57:24;18.50;94.80
19781;DHT22;10050;55.492;13.506;2023-04-22T07:59:51;18.80;97.50
19781;DHT22;10050;55.492;13.506;2023-04-22T08:02:16;18.90;94.50
19781;DHT22;10050;55.492;13.506;2023-04-22T08:04:52;18.90;94.70
19781;DHT22;10050;55.492;13.506;2023-04-22T08:07:18;18.90;95.00
19781;DHT22;10050;55.492;13.506;2023-04-22T08:09:43;19.00;94.70
19781;DHT22;10050;55.492;13.506;2023-04-22T08:12:09;19.40;94.30
19781;DHT22;10050;55.492;13.506;2023-04-22T08:14:35;19.20;92.60
19781;DHT22;10050;55.492;13.506;2023-04-22T08:17:00;19.00;93.20
19781;DHT22;10050;55.492;13.506;2023-04-22T08:19:26;18.90;92.70
19781;DHT22;10050;55.492;13.506;2023-04-22T08:21:51;18.80;93.00
19781;DHT22;10050;55.492;13.506;2023-04-22T08:24:17;18.70;94.00
19781;DHT22;10050;55.492;13.506;2023-04-22T08:26:43;19.10;93.30
19781;DHT22;10050;55.492;13.506;2023-04-22T08:29:09;19.10;93.30
19781;DHT22;10050;55.492;13.506;2023-04-22T08:31:34;19.00;92.70
19781;DHT22;10050;55.492;13.506;2023-04-22T08:34:00;19.10;93.10
19781;DHT22;10050;55.492;13.506;2023-04-22T08:36:25;19.20;92.10
19781;DHT22;10050;55.492;13.506;2023-04-22T08:38:52;19.40;92.00
19781;DHT22;10050;55.492;13.506;2023-04-22T08:41:20;19.00;91.30
19781;DHT22;10050;55.492;13.506;2023-04-22T08:43:46;18.40;92.00
19781;DHT22;10050;55.492;13.506;2023-04-22T08:46:12;18.50;92.20
19781;DHT22;10050;55.492;13.506;2023-04-22T08:48:40;18.50;92.50
19781;DHT22;10050;55.492;13.506;2023-04-22T08:51:06;18.00;92.30
19781;DHT22;10050;55.492;13.506;2023-04-22T08:53:32;18.30;93.70
19781;DHT22;10050;55.492;13.506;2023-04-22T08:55:58;18.60;92.80
19781;DHT22;10050;55.492;13.506;2023-04-22T08:58:25;18.90;93.30
19781;DHT22;10050;55.492;13.506;2023-04-22T09:00:53;18.70;93.00
19781;DHT22;10050;55.492;13.506;2023-04-22T09:03:19;18.20;93.10
19781;DHT22;10050;55.492;13.506;2023-04-22T09:05:47;18.40;93.20
19781;DHT22;10050;55.492;13.506;2023-04-22T09:08:14;18.80;93.60
19781;DHT22;10050;55.492;13.506;2023-04-22T09:10:40;18.80;93.90
19781;DHT22;10050;55.492;13.506;2023-04-22T09:13:06;18.50;94.00
19781;DHT22;10050;55.492;13.506;2023-04-22T09:15:32;18.70;93.60
19781;DHT22;10050;55.492;13.506;2023-04-22T09:17:58;18.70;92.80
19781;DHT22;10050;55.492;13.506;2023-04-22T09:20:28;18.80;93.30
19781;DHT22;10050;55.492;13.506;2023-04-22T09:22:55;19.50;94.50
19781;DHT22;10050;55.492;13.506;2023-04-22T09:25:23;19.00;91.90
19781;DHT22;10050;55.492;13.506;2023-04-22T09:27:51;18.90;92.60
19781;DHT22;10050;55.492;13.506;2023-04-22T09:30:29;18.90;93.10
19781;DHT22;10050;55.492;13.506;2023-04-22T09:32:56;18.80;92.20
19781;DHT22;10050;55.492;13.506;2023-04-22T09:37:53;18.70;92.70
19781;DHT22;10050;55.492;13.506;2023-04-22T09:40:19;18.50;93.80
19781;DHT22;10050;55.492;13.506;2023-04-22T09:42:53;18.90;93.70
19781;DHT22;10050;55.492;13.506;2023-04-22T09:45:30;19.00;92.90
19781;DHT22;10050;55.492;13.506;2023-04-22T09:47:58;18.80;92.20
19781;DHT22;10050;55.492;13.506;2023-04-22T09:50:26;18.60;93.50
19781;DHT22;10050;55.492;13.506;2023-04-22T09:53:00;18.30;94.60
19781;DHT22;10050;55.492;13.506;2023-04-22T09:55:28;18.40;93.30
19781;DHT22;10050;55.492;13.506;2023-04-22T09:57:55;18.70;94.70
19781;DHT22;10050;55.492;13.506;2023-04-22T10:00:27;18.80;93.50
19781;DHT22;10050;55.492;13.506;2023-04-22T10:02:54;18.90;94.30
19781;DHT22;10050;55.492;13.506;2023-04-22T10:05:19;18.70;93.30
19781;DHT22;10050;55.492;13.506;2023-04-22T10:07:46;18.70;93.50
19781;DHT22;10050;55.492;13.506;2023-04-22T10:10:12;18.70;93.90
19781;DHT22;10050;55.492;13.506;2023-04-22T10:12:38;18.40;93.50
19781;DHT22;10050;55.492;13.506;2023-04-22T10:15:04;18.20;95.00
19781;DHT22;10050;55.492;13.506;2023-04-22T10:17:33;18.50;96.00
19781;DHT22;10050;55.492;13.506;2023-04-22T10:20:02;18.60;94.60
19781;DHT22;10050;55.492;13.506;2023-04-22T10:22:32;18.50;94.10
19781;DHT22;10050;55.492;13.506;2023-04-22T10:24:58;18.60;93.10
19781;DHT22;10050;55.492;13.506;2023-04-22T10:27:24;18.20;93.40
19781;DHT22;10050;55.492;13.506;2023-04-22T10:29:50;18.30;95.40
19781;DHT22;10050;55.492;13.506;2023-04-22T10:34:48;18.20;94.90
19781;DHT22;10050;55.492;13.506;2023-04-22T10:37:18;17.90;94.70
19781;DHT22;10050;55.492;13.506;2023-04-22T10:40:07;18.10;96.00
19781;DHT22;10050;55.492;13.506;2023-04-22T10:42:33;18.30;96.90
19781;DHT22;10050;55.492;13.506;2023-04-22T10:45:01;18.30;95.90
19781;DHT22;10050;55.492;13.506;2023-04-22T10:47:33;18.00;95.90
19781;DHT22;10050;55.492;13.506;2023-04-22T10:50:22;17.90;96.60
19781;DHT22;10050;55.492;13.506;2023-04-22T10:52:53;17.70;96.80
19781;DHT22;10050;55.492;13.506;2023-04-22T10:55:19;18.00;98.90
19781;DHT22;10050;55.492;13.506;2023-04-22T10:57:47;18.30;98.00
19781;DHT22;10050;55.492;13.506;2023-04-22T11:03:07;18.00;97.80
19781;DHT22;10050;55.492;13.506;2023-04-22T11:05:35;18.00;98.80
19781;DHT22;10050;55.492;13.506;2023-04-22T11:08:17;17.70;97.40
19781;DHT22;10050;55.492;13.506;2023-04-22T11:10:51;17.80;97.50
19781;DHT22;10050;55.492;13.506;2023-04-22T11:13:20;17.60;97.70
19781;DHT22;10050;55.492;13.506;2023-04-22T11:15:53;17.30;98.40
19781;DHT22;10050;55.492;13.506;2023-04-22T11:18:19;17.20;98.10
19781;DHT22;10050;55.492;13.506;2023-04-22T11:20:46;17.30;99.10
19781;DHT22;10050;55.492;13.506;2023-04-22T11:23:18;16.90;99.20
19781;DHT22;10050;55.492;13.506;2023-04-22T11:25:43;16.90;99.90
19781;DHT22;10050;55.492;13.506;2023-04-22T11:28:09;16.90;99.90
19781;DHT22;10050;55.492;13.506;2023-04-22T11:30:35;17.20;99.90
19781;DHT22;10050;55.492;13.506;2023-04-22T11:33:01;17.00;99.90
19781;DHT22;10050;55.492;13.506;2023-04-22T11:35:28;17.10;99.90
19781;DHT22;10050;55.492;13.506;2023-04-22T11:38:02;17.00;99.90
19781;DHT22;10050;55.492;13.506;2023-04-22T11:40:39;16.90;99.90
19781;DHT22;10050;55.492;13.506;2023-04-22T11:43:06;17.00;99.90
19781;DHT22;10050;55.492;13.506;2023-04-22T11:45:34;17.00;99.90
19781;DHT22;10050;55.492;13.506;2023-04-22T11:48:01;17.00;99.90
19781;DHT22;10050;55.492;13.506;2023-04-22T11:50:32;17.10;99.90
19781;DHT22;10050;55.492;13.506;2023-04-22T11:53:03;17.20;99.90
19781;DHT22;10050;55.492;13.506;2023-04-22T11:55:33;17.40;99.90
19781;DHT22;10050;55.492;13.506;2023-04-22T12:00:31;17.20;99.90
19781;DHT22;10050;55.492;13.506;2023-04-22T12:03:03;17.10;99.90
19781;DHT22;10050;55.492;13.506;2023-04-22T12:05:38;17.20;99.90
19781;DHT22;10050;55.492;13.506;2023-04-22T12:08:25;17.20;99.90
19781;DHT22;10050;55.492;13.506;2023-04-22T12:10:55;17.40;99.90
19781;DHT22;10050;55.492;13.506;2023-04-22T12:13:38;17.30;99.90
19781;DHT22;10050;55.492;13.506;2023-04-22T12:16:10;17.50;99.90
19781;DHT22;10050;55.492;13.506;2023-04-22T12:18:54;17.70;99.90
19781;DHT22;10050;55.492;13.506;2023-04-22T12:21:25;17.60;99.90
19781;DHT22;10050;55.492;13.506;2023-04-22T12:24:10;17.40;99.90
19781;DHT22;10050;55.492;13.506;2023-04-22T12:26:36;17.60;99.90
19781;DHT22;10050;55.492;13.506;2023-04-22T12:29:05;17.60;99.90
19781;DHT22;10050;55.492;13.506;2023-04-22T12:31:30;17.50;99.80
19781;DHT22;10050;55.492;13.506;2023-04-22T12:33:56;17.60;99.90
19781;DHT22;10050;55.492;13.506;2023-04-22T12:36:22;17.60;99.90
19781;DHT22;10050;55.492;13.506;2023-04-22T12:38:48;17.40;99.90
19781;DHT22;10050;55.492;13.506;2023-04-22T12:41:14;17.60;99.90
19781;DHT22;10050;55.492;13.506;2023-04-22T12:43:42;17.50;99.90
19781;DHT22;10050;55.492;13.506;2023-04-22T12:46:08;17.50;99.90
19781;DHT22;10050;55.492;13.506;2023-04-22T12:48:37;17.50;99.90
19781;DHT22;10050;55.492;13.506;2023-04-22T12:51:03;17.50;99.90
19781;DHT22;10050;55.492;13.506;2023-04-22T12:53:29;17.70;99.90
19781;DHT22;10050;55.492;13.506;2023-04-22T12:55:58;17.80;99.90
19781;DHT22;10050;55.492;13.506;2023-04-22T12:58:23;17.80;99.10
19781;DHT22;10050;55.492;13.506;2023-04-22T13:00:49;17.90;99.90
19781;DHT22;10050;55.492;13.506;2023-04-22T13:03:15;17.90;99.90
19781;DHT22;10050;55.492;13.506;2023-04-22T13:05:41;17.70;98.60
19781;DHT22;10050;55.492;13.506;2023-04-22T13:08:06;17.70;99.90
19781;DHT22;10050;55.492;13.506;2023-04-22T13:10:32;17.70;99.50
19781;DHT22;10050;55.492;13.506;2023-04-22T13:12:58;17.50;97.80
19781;DHT22;10050;55.492;13.506;2023-04-22T13:15:24;17.40;99.40
19781;DHT22;10050;55.492;13.506;2023-04-22T13:17:51;17.40;99.00
19781;DHT22;10050;55.492;13.506;2023-04-22T13:20:17;17.30;99.80
19781;DHT22;10050;55.492;13.506;2023-04-22T13:22:43;17.50;99.90
19781;DHT22;10050;55.492;13.506;2023-04-22T13:25:09;17.70;99.70
19781;DHT22;10050;55.492;13.506;2023-04-22T13:27:35;17.70;99.10
19781;DHT22;10050;55.492;13.506;2023-04-22T13:30:01;17.80;99.20
19781;DHT22;10050;55.492;13.506;2023-04-22T13:32:28;17.70;98.50
19781;DHT22;10050;55.492;13.506;2023-04-22T13:34:54;17.70;97.10
19781;DHT22;10050;55.492;13.506;2023-04-22T13:37:19;17.50;97.70
19781;DHT22;10050;55.492;13.506;2023-04-22T13:39:46;17.30;97.60
19781;DHT22;10050;55.492;13.506;2023-04-22T13:42:12;17.40;97.30
19781;DHT22;10050;55.492;13.506;2023-04-22T13:44:37;17.20;96.60
19781;DHT22;10050;55.492;13.506;2023-04-22T13:47:03;17.30;97.70
19781;DHT22;10050;55.492;13.506;2023-04-22T13:49:29;17.30;97.60
19781;DHT22;10050;55.492;13.506;2023-04-22T13:51:55;17.20;96.80
19781;DHT22;10050;55.492;13.506;2023-04-22T13:54:21;17.20;97.10
19781;DHT22;10050;55.492;13.506;2023-04-22T13:56:47;17.00;97.70
19781;DHT22;10050;55.492;13.506;2023-04-22T13:59:13;17.20;99.00
19781;DHT22;10050;55.492;13.506;2023-04-22T14:01:39;17.40;98.10
19781;DHT22;10050;55.492;13.506;2023-04-22T14:04:05;17.50;98.70
19781;DHT22;10050;55.492;13.506;2023-04-22T14:06:31;17.30;96.70
19781;DHT22;10050;55.492;13.506;2023-04-22T14:08:57;17.10;97.00
19781;DHT22;10050;55.492;13.506;2023-04-22T14:11:23;17.10;97.70
19781;DHT22;10050;55.492;13.506;2023-04-22T14:13:48;17.10;96.60
19781;DHT22;10050;55.492;13.506;2023-04-22T14:16:15;17.10;96.90
19781;DHT22;10050;55.492;13.506;2023-04-22T14:18:42;17.00;96.90
19781;DHT22;10050;55.492;13.506;2023-04-22T14:21:10;17.00;97.60
19781;DHT22;10050;55.492;13.506;2023-04-22T14:23:39;17.00;99.00
19781;DHT22;10050;55.492;13.506;2023-04-22T14:26:10;17.00;98.90
19781;DHT22;10050;55.492;13.506;2023-04-22T14:28:37;17.10;98.50
19781;DHT22;10050;55.492;13.506;2023-04-22T14:31:02;17.20;99.60
19781;DHT22;10050;55.492;13.506;2023-04-22T14:33:28;16.90;98.10
19781;DHT22;10050;55.492;13.506;2023-04-22T14:35:54;16.90;98.30
19781;DHT22;10050;55.492;13.506;2023-04-22T14:38:21;16.90;99.80
19781;DHT22;10050;55.492;13.506;2023-04-22T14:40:47;16.60;99.10
19781;DHT22;10050;55.492;13.506;2023-04-22T14:43:13;16.60;99.90
19781;DHT22;10050;55.492;13.506;2023-04-22T14:45:39;16.40;99.00
19781;DHT22;10050;55.492;13.506;2023-04-22T14:48:05;16.30;99.10
19781;DHT22;10050;55.492;13.506;2023-04-22T14:50:31;16.10;99.70
19781;DHT22;10050;55.492;13.506;2023-04-22T14:52:57;16.10;99.90
19781;DHT22;10050;55.492;13.506;2023-04-22T14:55:23;16.00;99.90
19781;DHT22;10050;55.492;13.506;2023-04-22T14:57:50;16.10;99.60
19781;DHT22;10050;55.492;13.506;2023-04-22T15:00:16;15.90;99.90
19781;DHT22;10050;55.492;13.506;2023-04-22T15:02:43;15.90;99.90
19781;DHT22;10050;55.492;13.506;2023-04-22T15:05:08;15.90;99.90
19781;DHT22;10050;55.492;13.506;2023-04-22T15:07:34;15.80;99.90
19781;DHT22;10050;55.492;13.506;2023-04-22T15:10:00;15.80;99.90
19781;DHT22;10050;55.492;13.506;2023-04-22T15:12:27;15.80;99.90
19781;DHT22;10050;55.492;13.506;2023-04-22T15:14:53;15.80;99.90
19781;DHT22;10050;55.492;13.506;2023-04-22T15:17:19;15.70;99.90
19781;DHT22;10050;55.492;13.506;2023-04-22T15:19:45;15.50;99.90
19781;DHT22;10050;55.492;13.506;2023-04-22T15:22:11;15.30;99.90
19781;DHT22;10050;55.492;13.506;2023-04-22T15:24:36;15.30;99.90
19781;DHT22;10050;55.492;13.506;2023-04-22T15:27:02;15.20;99.90
19781;DHT22;10050;55.492;13.506;2023-04-22T15:29:28;15.20;99.90